createdAt,value
2023-02-12T00:13:35.182Z,101752.31
2023-02-12T00:16:16.498Z,101752.31
2023-02-12T00:18:54.101Z,101750.44
2023-02-12T00:21:35.136Z,101745.50
2023-02-12T00:24:03.749Z,101744.78
2023-02-12T00:26:32.569Z,101737.25
2023-02-12T00:29:01.132Z,101736.19
2023-02-12T00:31:35.814Z,101733.34
2023-02-12T00:54:45.169Z,101754.09
2023-02-12T00:57:13.999Z,101754.09
2023-02-12T00:59:43.211Z,101759.56
2023-02-12T01:02:12.011Z,101737.72
2023-02-12T01:04:42.113Z,101768.78
2023-02-12T01:07:10.787Z,101778.03
2023-02-12T01:09:39.466Z,101780.62
2023-02-12T01:30:27.157Z,101765.59
2023-02-12T01:32:56.384Z,101765.59
2023-02-12T01:35:25.137Z,101772.13
2023-02-12T01:37:55.755Z,101757.00
2023-02-12T01:40:27.172Z,101738.72
2023-02-12T01:42:55.144Z,101727.66
2023-02-12T01:45:23.060Z,101728.94
2023-02-12T02:05:48.113Z,101735.78
2023-02-12T02:08:17.297Z,101735.78
2023-02-12T02:10:45.460Z,101737.06
2023-02-12T02:13:33.991Z,101728.28
2023-02-12T02:16:10.816Z,101733.53
2023-02-12T02:19:05.699Z,101743.28
2023-02-12T02:22:12.034Z,101735.22
2023-02-12T02:36:54.162Z,101746.66
2023-02-12T02:39:33.280Z,101746.66
2023-02-12T02:42:04.331Z,101759.34
2023-02-12T02:44:51.150Z,101763.25
2023-02-12T02:47:32.750Z,101787.16
2023-02-12T02:50:09.720Z,101789.28
2023-02-12T03:15:02.508Z,101767.00
2023-02-12T03:17:39.782Z,101767.00
2023-02-12T03:20:15.308Z,101781.56
2023-02-12T03:22:51.603Z,101788.88
2023-02-12T03:25:51.928Z,101786.59
2023-02-12T03:28:27.182Z,101784.50
2023-02-12T03:31:29.726Z,101789.97
2023-02-12T03:51:28.699Z,101816.69
2023-02-12T03:53:57.870Z,101816.69
2023-02-12T03:56:33.134Z,101824.03
2023-02-12T03:59:04.664Z,101829.25
2023-02-12T04:01:35.402Z,101830.81
2023-02-12T04:04:07.330Z,101831.75
2023-02-12T04:06:35.758Z,101824.03
2023-02-12T04:29:26.533Z,101848.53
2023-02-12T04:32:30.390Z,101848.53
2023-02-12T04:59:10.534Z,101877.19
2023-02-12T05:01:40.462Z,101877.19
2023-02-12T05:04:13.632Z,101896.97
2023-02-12T05:06:43.156Z,101897.78
2023-02-12T05:09:15.378Z,101904.06
2023-02-12T05:11:47.130Z,101910.81
2023-02-12T05:14:15.743Z,101922.41
2023-02-12T05:16:44.270Z,101919.78
2023-02-12T05:36:46.517Z,101959.37
2023-02-12T05:39:20.623Z,101959.37
2023-02-12T05:41:51.342Z,101974.06
2023-02-12T05:44:26.723Z,101958.53
2023-02-12T05:47:03.488Z,101960.38
2023-02-12T05:50:03.065Z,101964.41
2023-02-12T05:52:43.731Z,101960.38
2023-02-12T05:55:24.399Z,101890.47
2023-02-12T06:19:44.170Z,102039.44
2023-02-12T06:22:13.030Z,102039.44
2023-02-12T06:24:41.120Z,102046.50
2023-02-12T06:27:09.061Z,102047.50
2023-02-12T06:29:38.162Z,102058.16
2023-02-12T06:32:08.675Z,102063.38
2023-02-12T06:34:37.067Z,102060.59
2023-02-12T06:54:51.131Z,102081.91
2023-02-12T06:57:20.086Z,102081.91
2023-02-12T06:59:50.020Z,102088.59
2023-02-12T07:02:19.040Z,102079.16
2023-02-12T07:04:48.074Z,102074.56
2023-02-12T07:07:16.108Z,102080.53
2023-02-12T07:09:44.057Z,102070.91
2023-02-12T07:12:17.445Z,102087.69
2023-02-12T07:30:20.440Z,102107.91
2023-02-12T07:32:50.101Z,102107.91
2023-02-12T07:35:20.670Z,102110.59
2023-02-12T07:37:49.094Z,102111.44
2023-02-12T07:40:19.085Z,102112.16
2023-02-12T07:42:47.490Z,102108.88
2023-02-12T07:45:19.017Z,102117.72
2023-02-12T07:47:47.181Z,102121.56
2023-02-12T08:02:59.358Z,102127.47
2023-02-12T08:05:28.521Z,102137.75
2023-02-12T08:07:56.436Z,102146.59
2023-02-12T08:10:27.359Z,102154.53
2023-02-12T08:12:55.575Z,102160.22
2023-02-12T08:15:24.090Z,102167.31
2023-02-12T08:17:51.984Z,102155.06
2023-02-12T08:20:21.156Z,102174.94
2023-02-12T08:22:49.140Z,102176.31
2023-02-12T08:25:27.189Z,102183.97
2023-02-12T08:42:47.066Z,102193.47
2023-02-12T08:45:15.960Z,102193.47
2023-02-12T08:47:44.065Z,102197.50
2023-02-12T08:50:13.075Z,102197.03
2023-02-12T08:52:43.098Z,102197.06
2023-02-12T08:55:12.009Z,102193.94
2023-02-12T08:57:39.994Z,102179.44
2023-02-12T09:00:09.794Z,102211.09
2023-02-12T09:20:46.442Z,102238.62
2023-02-12T09:23:15.832Z,102238.62
2023-02-12T09:25:46.405Z,102231.69
2023-02-12T09:28:15.047Z,102242.94
2023-02-12T09:30:46.026Z,102237.53
2023-02-12T09:33:14.742Z,102242.78
2023-02-12T09:35:42.657Z,102243.94
2023-02-12T09:38:11.904Z,102219.09
2023-02-12T09:54:53.577Z,102263.06
2023-02-12T09:57:31.733Z,102263.06
2023-02-12T10:00:07.450Z,102262.59
2023-02-12T10:02:37.736Z,102262.34
2023-02-12T10:05:21.293Z,102264.78
2023-02-12T10:08:07.819Z,102252.31
2023-02-12T10:27:28.562Z,102264.47
2023-02-12T10:33:11.131Z,102190.53
2023-02-12T10:36:07.738Z,102278.28
2023-02-12T10:38:43.076Z,102265.16
2023-02-12T10:41:18.094Z,102256.66
2023-02-12T10:43:46.482Z,102272.88
2023-02-12T10:46:24.775Z,102269.22
2023-02-12T11:11:39.310Z,102261.69
2023-02-12T11:14:20.960Z,102261.69
2023-02-12T11:17:07.500Z,102260.19
2023-02-12T11:19:38.411Z,102260.53
2023-02-12T11:22:18.930Z,102258.62
2023-02-12T11:25:02.957Z,102259.75
2023-02-12T11:27:31.953Z,102255.38
2023-02-12T11:30:21.641Z,102258.31
2023-02-12T11:46:01.482Z,102243.28
2023-02-12T11:48:40.028Z,102243.28
2023-02-12T11:51:18.689Z,102243.37
2023-02-12T11:53:51.395Z,102243.13
2023-02-12T11:56:21.153Z,102244.03
2023-02-12T11:58:51.893Z,102229.56
2023-02-12T12:25:08.530Z,102216.25
2023-02-12T12:28:06.645Z,102216.25
2023-02-12T12:30:48.736Z,102215.47
2023-02-12T12:33:36.297Z,102218.59
2023-02-12T12:36:13.512Z,102213.56
2023-02-12T12:39:00.401Z,102203.66
2023-02-12T12:41:48.504Z,102208.28
2023-02-12T13:05:54.512Z,102216.66
2023-02-12T13:08:45.730Z,102216.66
2023-02-12T13:11:51.809Z,102209.91
2023-02-12T13:14:46.608Z,102214.00
2023-02-12T13:17:41.221Z,102215.75
2023-02-12T13:20:35.789Z,102220.31
2023-02-12T13:42:35.628Z,102224.03
2023-02-12T13:45:46.418Z,102224.03
2023-02-12T14:03:39.295Z,102228.06
2023-02-12T14:06:17.082Z,102228.06
2023-02-12T14:08:50.627Z,102234.06
2023-02-12T14:11:22.710Z,102236.34
2023-02-12T14:13:56.679Z,102239.94
2023-02-12T14:16:31.194Z,102236.44
2023-02-12T14:19:38.065Z,102246.50
2023-02-12T14:41:48.497Z,102243.63
2023-02-12T14:44:17.380Z,102243.63
2023-02-12T14:46:52.085Z,102252.84
2023-02-12T14:49:39.095Z,102257.59
2023-02-12T14:52:12.558Z,102244.31
2023-02-12T14:55:02.932Z,102253.91
2023-02-12T14:57:40.815Z,102262.09
2023-02-12T15:16:44.856Z,102239.41
2023-02-12T15:19:28.840Z,102239.41
2023-02-12T15:21:58.806Z,102256.31
2023-02-12T15:24:28.280Z,102232.91
2023-02-12T15:26:59.673Z,102253.22
2023-02-12T15:29:33.145Z,102249.38
2023-02-12T15:32:07.346Z,102254.25
2023-02-12T15:51:16.669Z,102281.66
2023-02-12T15:53:46.934Z,102281.66
2023-02-12T15:56:19.847Z,102280.56
2023-02-12T15:58:54.126Z,102287.78
2023-02-12T16:01:26.235Z,102283.81
2023-02-12T16:03:57.791Z,102289.69
2023-02-12T16:06:29.320Z,102296.44
2023-02-12T16:28:18.678Z,102318.00
2023-02-12T16:31:21.929Z,102318.00
2023-02-12T16:33:59.910Z,102328.53
2023-02-12T16:36:34.939Z,102337.12
2023-02-12T16:39:38.270Z,102344.41
2023-02-12T16:42:23.972Z,102342.47
2023-02-12T16:45:13.044Z,102341.22
2023-02-12T16:47:42.476Z,102294.53
2023-02-12T16:50:22.091Z,102355.63
2023-02-12T16:53:26.837Z,102366.28
2023-02-12T16:56:05.923Z,102367.47
2023-02-12T17:24:58.087Z,102401.28
2023-02-12T17:27:27.010Z,102401.28
2023-02-12T17:29:55.977Z,102397.09
2023-02-12T17:32:25.547Z,102404.91
2023-02-12T17:34:55.955Z,102408.22
2023-02-12T17:37:25.657Z,102407.13
2023-02-12T17:39:56.431Z,102419.44
2023-02-12T17:42:25.220Z,102419.97
2023-02-12T18:00:14.431Z,102413.06
2023-02-12T18:02:43.653Z,102404.88
2023-02-12T18:05:12.808Z,102418.50
2023-02-12T18:07:42.210Z,102414.09
2023-02-12T18:10:12.700Z,102417.97
2023-02-12T18:12:42.005Z,102419.50
2023-02-12T18:15:11.759Z,102420.53
2023-02-12T18:17:44.105Z,102429.53
2023-02-12T18:37:48.701Z,102437.94
2023-02-12T18:40:23.951Z,102437.94
2023-02-12T18:43:05.936Z,102439.34
2023-02-12T18:45:40.285Z,102438.78
2023-02-12T18:48:26.087Z,102447.06
2023-02-12T18:51:05.074Z,102447.44
2023-02-12T18:53:43.158Z,102387.41
2023-02-12T18:56:13.164Z,102454.09
2023-02-12T18:58:43.708Z,102443.25
2023-02-12T19:22:29.770Z,102452.47
2023-02-12T19:24:59.706Z,102452.47
2023-02-12T19:27:30.072Z,102455.00
2023-02-12T19:30:01.048Z,102446.38
2023-02-12T19:32:29.810Z,102471.06
2023-02-12T19:34:58.870Z,102472.97
2023-02-12T19:37:27.941Z,102468.84
2023-02-12T20:00:39.903Z,102463.09
2023-02-12T20:03:09.889Z,102463.09
2023-02-12T20:05:44.777Z,102462.12
2023-02-12T20:08:13.853Z,102471.97
2023-02-12T20:10:42.877Z,102471.41
2023-02-12T20:13:11.493Z,102474.09
2023-02-12T20:15:40.843Z,102463.22
2023-02-12T20:18:11.643Z,102472.72
2023-02-12T20:38:43.569Z,102487.19
2023-02-12T20:41:12.951Z,102487.19
2023-02-12T20:43:41.146Z,102491.53
2023-02-12T20:46:13.738Z,102488.47
2023-02-12T20:48:43.495Z,102494.69
2023-02-12T20:51:17.632Z,102474.81
2023-02-12T20:53:47.306Z,102498.53
2023-02-12T21:11:58.234Z,102497.31
2023-02-12T21:14:27.428Z,102497.31
2023-02-12T21:16:56.772Z,102503.44
2023-02-12T21:19:26.883Z,102496.66
2023-02-12T21:21:59.305Z,102489.09
2023-02-12T21:24:27.389Z,102505.91
2023-02-12T21:26:57.877Z,102510.31
2023-02-12T21:49:42.049Z,102525.41
2023-02-12T21:52:12.007Z,102525.41
2023-02-12T21:54:43.818Z,102520.63
2023-02-12T21:57:18.175Z,102526.97
2023-02-12T21:59:46.872Z,102507.56
2023-02-12T22:02:17.543Z,102529.94
2023-02-12T22:04:45.939Z,102530.91
2023-02-12T22:07:13.849Z,102536.47
2023-02-12T22:09:41.974Z,102525.44
2023-02-12T22:12:10.889Z,102535.28
2023-02-12T22:14:38.873Z,102538.53
2023-02-12T22:17:06.974Z,102532.50
2023-02-12T22:19:36.944Z,102532.63
2023-02-12T22:42:46.712Z,102537.31
2023-02-12T22:45:15.814Z,102537.31
2023-02-12T22:47:44.978Z,102546.84
2023-02-12T22:50:13.833Z,102536.44
2023-02-12T22:52:42.655Z,102552.19
2023-02-12T22:55:10.623Z,102558.28
2023-02-12T22:57:38.659Z,102552.97
2023-02-12T23:23:08.221Z,102559.19
2023-02-12T23:25:37.842Z,102559.19
2023-02-12T23:28:05.868Z,102518.66
2023-02-12T23:30:33.971Z,102570.94
2023-02-12T23:33:02.862Z,102566.41
2023-02-12T23:35:30.872Z,102568.25
2023-02-12T23:38:00.004Z,102559.69
